sensor_id;sensor_type;location;lat;lon;timestamp;P1;durP1;ratioP1;P2;durP2;ratioP2
8478;SDS011;4276;49.354;6.804;2023-03-14T00:00:08;5.60;;;2.53;;
8478;SDS011;4276;49.354;6.804;2023-03-14T00:02:39;6.18;;;2.80;;
8478;SDS011;4276;49.354;6.804;2023-03-14T00:05:06;4.25;;;2.40;;
8478;SDS011;4276;49.354;6.804;2023-03-14T00:07:34;5.95;;;2.33;;
8478;SDS011;4276;49.354;6.804;2023-03-14T00:10:03;4.32;;;2.33;;
8478;SDS011;4276;49.354;6.804;2023-03-14T00:12:31;6.15;;;2.35;;
8478;SDS011;4276;49.354;6.804;2023-03-14T00:14:58;3.83;;;2.53;;
8478;SDS011;4276;49.354;6.804;2023-03-14T00:17:26;5.13;;;2.50;;
8478;SDS011;4276;49.354;6.804;2023-03-14T00:19:53;5.88;;;2.50;;
8478;SDS011;4276;49.354;6.804;2023-03-14T00:22:20;5.15;;;2.70;;
8478;SDS011;4276;49.354;6.804;2023-03-14T00:24:47;5.55;;;2.45;;
8478;SDS011;4276;49.354;6.804;2023-03-14T00:27:14;3.53;;;2.20;;
8478;SDS011;4276;49.354;6.804;2023-03-14T00:29:41;4.15;;;2.05;;
8478;SDS011;4276;49.354;6.804;2023-03-14T00:32:08;3.42;;;2.55;;
8478;SDS011;4276;49.354;6.804;2023-03-14T00:34:35;6.50;;;2.60;;
8478;SDS011;4276;49.354;6.804;2023-03-14T00:37:01;4.53;;;2.35;;
8478;SDS011;4276;49.354;6.804;2023-03-14T00:39:28;4.07;;;2.60;;
8478;SDS011;4276;49.354;6.804;2023-03-14T00:41:54;4.15;;;2.22;;
8478;SDS011;4276;49.354;6.804;2023-03-14T00:44:20;5.75;;;2.40;;
8478;SDS011;4276;49.354;6.804;2023-03-14T00:46:47;5.53;;;2.05;;
8478;SDS011;4276;49.354;6.804;2023-03-14T00:49:13;5.28;;;2.40;;
8478;SDS011;4276;49.354;6.804;2023-03-14T00:51:40;5.75;;;2.45;;
8478;SDS011;4276;49.354;6.804;2023-03-14T00:54:06;5.85;;;2.40;;
8478;SDS011;4276;49.354;6.804;2023-03-14T00:56:33;4.90;;;2.45;;
8478;SDS011;4276;49.354;6.804;2023-03-14T00:58:59;4.60;;;2.42;;
8478;SDS011;4276;49.354;6.804;2023-03-14T01:01:26;6.50;;;2.78;;
8478;SDS011;4276;49.354;6.804;2023-03-14T01:03:53;4.63;;;2.63;;
8478;SDS011;4276;49.354;6.804;2023-03-14T01:06:22;5.13;;;2.33;;
8478;SDS011;4276;49.354;6.804;2023-03-14T01:08:49;6.90;;;3.13;;
8478;SDS011;4276;49.354;6.804;2023-03-14T01:11:18;4.97;;;2.58;;
8478;SDS011;4276;49.354;6.804;2023-03-14T01:13:47;5.90;;;2.30;;
8478;SDS011;4276;49.354;6.804;2023-03-14T01:16:13;4.45;;;2.42;;
8478;SDS011;4276;49.354;6.804;2023-03-14T01:18:40;6.07;;;2.50;;
8478;SDS011;4276;49.354;6.804;2023-03-14T01:21:13;6.45;;;2.30;;
8478;SDS011;4276;49.354;6.804;2023-03-14T01:23:45;6.60;;;2.80;;
8478;SDS011;4276;49.354;6.804;2023-03-14T01:26:13;5.35;;;2.17;;
8478;SDS011;4276;49.354;6.804;2023-03-14T01:28:41;5.75;;;2.60;;
8478;SDS011;4276;49.354;6.804;2023-03-14T01:31:08;3.17;;;2.05;;
8478;SDS011;4276;49.354;6.804;2023-03-14T01:33:36;7.13;;;2.17;;
8478;SDS011;4276;49.354;6.804;2023-03-14T01:36:03;6.80;;;2.63;;
8478;SDS011;4276;49.354;6.804;2023-03-14T01:38:30;3.67;;;2.22;;
8478;SDS011;4276;49.354;6.804;2023-03-14T01:40:58;4.65;;;2.40;;
8478;SDS011;4276;49.354;6.804;2023-03-14T01:43:24;6.72;;;2.30;;
8478;SDS011;4276;49.354;6.804;2023-03-14T01:48:40;4.65;;;2.20;;
8478;SDS011;4276;49.354;6.804;2023-03-14T01:51:10;4.47;;;2.40;;
8478;SDS011;4276;49.354;6.804;2023-03-14T01:53:38;4.78;;;2.60;;
8478;SDS011;4276;49.354;6.804;2023-03-14T01:56:05;3.97;;;2.08;;
8478;SDS011;4276;49.354;6.804;2023-03-14T01:58:33;3.80;;;2.00;;
8478;SDS011;4276;49.354;6.804;2023-03-14T02:01:02;11.68;;;2.42;;
8478;SDS011;4276;49.354;6.804;2023-03-14T02:03:30;4.45;;;2.33;;
8478;SDS011;4276;49.354;6.804;2023-03-14T02:05:57;6.78;;;2.58;;
8478;SDS011;4276;49.354;6.804;2023-03-14T02:08:27;3.72;;;1.80;;
8478;SDS011;4276;49.354;6.804;2023-03-14T02:10:54;3.92;;;2.30;;
8478;SDS011;4276;49.354;6.804;2023-03-14T02:13:20;4.82;;;2.22;;
8478;SDS011;4276;49.354;6.804;2023-03-14T02:15:47;3.97;;;2.20;;
8478;SDS011;4276;49.354;6.804;2023-03-14T02:18:14;4.22;;;2.50;;
8478;SDS011;4276;49.354;6.804;2023-03-14T02:20:51;8.73;;;2.78;;
8478;SDS011;4276;49.354;6.804;2023-03-14T02:26:15;6.03;;;2.33;;
8478;SDS011;4276;49.354;6.804;2023-03-14T02:28:46;4.05;;;1.83;;
8478;SDS011;4276;49.354;6.804;2023-03-14T02:31:12;6.07;;;2.13;;
8478;SDS011;4276;49.354;6.804;2023-03-14T02:33:39;5.40;;;2.50;;
8478;SDS011;4276;49.354;6.804;2023-03-14T02:36:07;5.90;;;2.40;;
8478;SDS011;4276;49.354;6.804;2023-03-14T02:38:41;4.07;;;1.92;;
8478;SDS011;4276;49.354;6.804;2023-03-14T02:41:29;5.72;;;2.03;;
8478;SDS011;4276;49.354;6.804;2023-03-14T02:43:56;4.53;;;1.73;;
8478;SDS011;4276;49.354;6.804;2023-03-14T02:46:22;5.18;;;2.33;;
8478;SDS011;4276;49.354;6.804;2023-03-14T02:48:53;5.78;;;2.35;;
8478;SDS011;4276;49.354;6.804;2023-03-14T02:51:22;5.53;;;2.17;;
8478;SDS011;4276;49.354;6.804;2023-03-14T02:53:50;6.28;;;2.45;;
8478;SDS011;4276;49.354;6.804;2023-03-14T02:56:16;9.60;;;2.40;;
8478;SDS011;4276;49.354;6.804;2023-03-14T02:58:43;5.88;;;2.53;;
8478;SDS011;4276;49.354;6.804;2023-03-14T03:01:09;9.20;;;2.38;;
8478;SDS011;4276;49.354;6.804;2023-03-14T03:03:36;5.85;;;2.15;;
8478;SDS011;4276;49.354;6.804;2023-03-14T03:06:02;4.15;;;2.10;;
8478;SDS011;4276;49.354;6.804;2023-03-14T03:08:29;5.03;;;1.90;;
8478;SDS011;4276;49.354;6.804;2023-03-14T03:10:56;4.63;;;2.20;;
8478;SDS011;4276;49.354;6.804;2023-03-14T03:13:23;5.90;;;2.70;;
8478;SDS011;4276;49.354;6.804;2023-03-14T03:15:50;7.53;;;2.50;;
8478;SDS011;4276;49.354;6.804;2023-03-14T03:18:16;5.22;;;1.98;;
8478;SDS011;4276;49.354;6.804;2023-03-14T03:20:43;6.00;;;1.98;;
8478;SDS011;4276;49.354;6.804;2023-03-14T03:23:09;3.60;;;1.88;;
8478;SDS011;4276;49.354;6.804;2023-03-14T03:25:36;3.55;;;1.95;;
8478;SDS011;4276;49.354;6.804;2023-03-14T03:28:02;6.95;;;2.55;;
8478;SDS011;4276;49.354;6.804;2023-03-14T03:30:36;5.32;;;1.92;;
8478;SDS011;4276;49.354;6.804;2023-03-14T03:33:04;7.60;;;2.35;;
8478;SDS011;4276;49.354;6.804;2023-03-14T03:35:31;3.38;;;2.15;;
8478;SDS011;4276;49.354;6.804;2023-03-14T03:37:57;5.28;;;2.40;;
8478;SDS011;4276;49.354;6.804;2023-03-14T03:40:24;4.63;;;2.05;;
8478;SDS011;4276;49.354;6.804;2023-03-14T03:42:50;4.70;;;2.33;;
8478;SDS011;4276;49.354;6.804;2023-03-14T03:45:17;7.53;;;2.58;;
8478;SDS011;4276;49.354;6.804;2023-03-14T03:47:43;5.25;;;2.30;;
8478;SDS011;4276;49.354;6.804;2023-03-14T03:50:10;6.57;;;2.38;;
8478;SDS011;4276;49.354;6.804;2023-03-14T03:52:36;4.13;;;2.50;;
8478;SDS011;4276;49.354;6.804;2023-03-14T03:55:03;5.70;;;2.47;;
8478;SDS011;4276;49.354;6.804;2023-03-14T03:57:30;4.82;;;2.10;;
8478;SDS011;4276;49.354;6.804;2023-03-14T03:59:56;4.65;;;2.25;;
8478;SDS011;4276;49.354;6.804;2023-03-14T04:02:23;4.75;;;2.20;;
8478;SDS011;4276;49.354;6.804;2023-03-14T04:04:50;4.30;;;2.00;;
8478;SDS011;4276;49.354;6.804;2023-03-14T04:07:16;3.38;;;2.05;;
8478;SDS011;4276;49.354;6.804;2023-03-14T04:09:43;3.75;;;2.13;;
8478;SDS011;4276;49.354;6.804;2023-03-14T04:12:09;5.20;;;2.67;;
8478;SDS011;4276;49.354;6.804;2023-03-14T04:14:37;3.42;;;2.10;;
8478;SDS011;4276;49.354;6.804;2023-03-14T04:17:03;5.28;;;2.35;;
8478;SDS011;4276;49.354;6.804;2023-03-14T04:19:30;3.67;;;2.28;;
8478;SDS011;4276;49.354;6.804;2023-03-14T04:21:56;2.92;;;1.80;;
8478;SDS011;4276;49.354;6.804;2023-03-14T04:24:23;3.00;;;1.90;;
8478;SDS011;4276;49.354;6.804;2023-03-14T04:26:49;3.60;;;2.10;;
8478;SDS011;4276;49.354;6.804;2023-03-14T04:29:16;4.10;;;2.13;;
8478;SDS011;4276;49.354;6.804;2023-03-14T04:31:42;4.05;;;2.22;;
8478;SDS011;4276;49.354;6.804;2023-03-14T04:34:09;2.97;;;2.08;;
8478;SDS011;4276;49.354;6.804;2023-03-14T04:36:35;3.38;;;2.03;;
8478;SDS011;4276;49.354;6.804;2023-03-14T04:39:05;2.80;;;2.20;;
8478;SDS011;4276;49.354;6.804;2023-03-14T04:41:31;5.00;;;2.10;;
8478;SDS011;4276;49.354;6.804;2023-03-14T04:43:58;6.68;;;2.15;;
8478;SDS011;4276;49.354;6.804;2023-03-14T04:46:24;5.78;;;2.38;;
8478;SDS011;4276;49.354;6.804;2023-03-14T04:48:51;6.20;;;2.40;;
8478;SDS011;4276;49.354;6.804;2023-03-14T04:51:17;4.63;;;2.20;;
8478;SDS011;4276;49.354;6.804;2023-03-14T04:53:44;5.07;;;2.03;;
8478;SDS011;4276;49.354;6.804;2023-03-14T04:56:10;4.93;;;2.40;;
8478;SDS011;4276;49.354;6.804;2023-03-14T04:58:39;3.38;;;2.03;;
8478;SDS011;4276;49.354;6.804;2023-03-14T05:01:05;3.50;;;2.17;;
8478;SDS011;4276;49.354;6.804;2023-03-14T05:03:32;5.60;;;2.05;;
8478;SDS011;4276;49.354;6.804;2023-03-14T05:05:59;3.42;;;2.17;;
8478;SDS011;4276;49.354;6.804;2023-03-14T05:08:26;5.93;;;1.98;;
8478;SDS011;4276;49.354;6.804;2023-03-14T05:10:54;5.22;;;2.03;;
8478;SDS011;4276;49.354;6.804;2023-03-14T05:13:22;7.80;;;5.70;;
8478;SDS011;4276;49.354;6.804;2023-03-14T05:15:49;2.88;;;2.20;;
8478;SDS011;4276;49.354;6.804;2023-03-14T05:18:17;3.92;;;2.20;;
8478;SDS011;4276;49.354;6.804;2023-03-14T05:20:45;6.43;;;2.20;;
8478;SDS011;4276;49.354;6.804;2023-03-14T05:23:11;3.42;;;2.10;;
8478;SDS011;4276;49.354;6.804;2023-03-14T05:25:38;3.75;;;1.90;;
8478;SDS011;4276;49.354;6.804;2023-03-14T05:28:05;3.67;;;2.00;;
8478;SDS011;4276;49.354;6.804;2023-03-14T05:30:31;4.57;;;2.25;;
8478;SDS011;4276;49.354;6.804;2023-03-14T05:32:59;3.33;;;1.77;;
8478;SDS011;4276;49.354;6.804;2023-03-14T05:35:26;4.38;;;1.98;;
8478;SDS011;4276;49.354;6.804;2023-03-14T05:37:52;6.32;;;2.20;;
8478;SDS011;4276;49.354;6.804;2023-03-14T05:40:19;3.17;;;1.90;;
8478;SDS011;4276;49.354;6.804;2023-03-14T05:42:45;2.67;;;1.75;;
8478;SDS011;4276;49.354;6.804;2023-03-14T05:45:12;4.05;;;2.08;;
8478;SDS011;4276;49.354;6.804;2023-03-14T05:47:38;3.63;;;2.00;;
8478;SDS011;4276;49.354;6.804;2023-03-14T05:50:05;3.22;;;2.13;;
8478;SDS011;4276;49.354;6.804;2023-03-14T05:52:32;6.13;;;2.50;;
8478;SDS011;4276;49.354;6.804;2023-03-14T05:54:58;3.58;;;1.90;;
8478;SDS011;4276;49.354;6.804;2023-03-14T05:57:25;5.75;;;2.22;;
8478;SDS011;4276;49.354;6.804;2023-03-14T05:59:51;2.72;;;1.63;;
8478;SDS011;4276;49.354;6.804;2023-03-14T06:02:18;4.10;;;2.05;;
8478;SDS011;4276;49.354;6.804;2023-03-14T06:04:44;2.88;;;1.92;;
8478;SDS011;4276;49.354;6.804;2023-03-14T06:07:11;4.80;;;2.25;;
8478;SDS011;4276;49.354;6.804;2023-03-14T06:09:37;6.90;;;2.50;;
8478;SDS011;4276;49.354;6.804;2023-03-14T06:12:05;4.30;;;2.17;;
8478;SDS011;4276;49.354;6.804;2023-03-14T06:14:32;4.60;;;2.03;;
8478;SDS011;4276;49.354;6.804;2023-03-14T06:16:58;4.82;;;2.00;;
8478;SDS011;4276;49.354;6.804;2023-03-14T06:19:25;3.60;;;2.25;;
8478;SDS011;4276;49.354;6.804;2023-03-14T06:21:52;3.30;;;1.60;;
8478;SDS011;4276;49.354;6.804;2023-03-14T06:24:18;3.95;;;1.90;;
8478;SDS011;4276;49.354;6.804;2023-03-14T06:26:45;3.20;;;2.17;;
8478;SDS011;4276;49.354;6.804;2023-03-14T06:29:11;4.78;;;2.30;;
8478;SDS011;4276;49.354;6.804;2023-03-14T06:31:39;3.97;;;1.77;;
8478;SDS011;4276;49.354;6.804;2023-03-14T06:34:06;3.67;;;1.80;;
8478;SDS011;4276;49.354;6.804;2023-03-14T06:36:32;2.38;;;1.63;;
8478;SDS011;4276;49.354;6.804;2023-03-14T06:38:58;4.00;;;1.92;;
8478;SDS011;4276;49.354;6.804;2023-03-14T06:41:25;5.60;;;2.38;;
8478;SDS011;4276;49.354;6.804;2023-03-14T06:43:52;3.35;;;1.55;;
8478;SDS011;4276;49.354;6.804;2023-03-14T06:46:21;5.18;;;1.92;;
8478;SDS011;4276;49.354;6.804;2023-03-14T06:48:48;2.95;;;1.33;;
8478;SDS011;4276;49.354;6.804;2023-03-14T06:51:14;4.20;;;1.50;;
8478;SDS011;4276;49.354;6.804;2023-03-14T06:53:41;3.65;;;1.45;;
8478;SDS011;4276;49.354;6.804;2023-03-14T06:56:08;4.35;;;1.88;;
8478;SDS011;4276;49.354;6.804;2023-03-14T06:58:34;2.95;;;1.50;;
8478;SDS011;4276;49.354;6.804;2023-03-14T07:01:01;4.10;;;1.48;;
8478;SDS011;4276;49.354;6.804;2023-03-14T07:03:28;2.65;;;1.40;;
8478;SDS011;4276;49.354;6.804;2023-03-14T07:05:54;1.65;;;1.27;;
8478;SDS011;4276;49.354;6.804;2023-03-14T07:08:21;1.73;;;1.27;;
8478;SDS011;4276;49.354;6.804;2023-03-14T07:10:47;2.05;;;1.27;;
8478;SDS011;4276;49.354;6.804;2023-03-14T07:13:14;1.35;;;1.10;;
8478;SDS011;4276;49.354;6.804;2023-03-14T07:15:40;2.38;;;1.15;;
8478;SDS011;4276;49.354;6.804;2023-03-14T07:18:07;1.85;;;1.20;;
8478;SDS011;4276;49.354;6.804;2023-03-14T07:20:33;1.20;;;1.10;;
8478;SDS011;4276;49.354;6.804;2023-03-14T07:23:00;1.25;;;1.10;;
8478;SDS011;4276;49.354;6.804;2023-03-14T07:25:28;1.20;;;1.00;;
8478;SDS011;4276;49.354;6.804;2023-03-14T07:27:55;0.80;;;0.80;;
8478;SDS011;4276;49.354;6.804;2023-03-14T07:30:22;0.90;;;0.90;;
8478;SDS011;4276;49.354;6.804;2023-03-14T07:32:48;1.45;;;1.25;;
8478;SDS011;4276;49.354;6.804;2023-03-14T07:35:15;2.30;;;1.10;;
8478;SDS011;4276;49.354;6.804;2023-03-14T07:37:42;1.52;;;1.10;;
8478;SDS011;4276;49.354;6.804;2023-03-14T07:40:08;1.63;;;0.93;;
8478;SDS011;4276;49.354;6.804;2023-03-14T07:42:36;1.95;;;1.65;;
8478;SDS011;4276;49.354;6.804;2023-03-14T07:45:03;1.70;;;1.13;;
8478;SDS011;4276;49.354;6.804;2023-03-14T07:47:30;2.17;;;1.15;;
8478;SDS011;4276;49.354;6.804;2023-03-14T07:49:56;1.30;;;1.20;;
8478;SDS011;4276;49.354;6.804;2023-03-14T07:52:23;1.02;;;1.00;;
8478;SDS011;4276;49.354;6.804;2023-03-14T07:54:50;1.75;;;0.90;;
8478;SDS011;4276;49.354;6.804;2023-03-14T07:57:16;2.33;;;1.40;;
8478;SDS011;4276;49.354;6.804;2023-03-14T07:59:43;0.93;;;0.90;;
8478;SDS011;4276;49.354;6.804;2023-03-14T08:02:10;1.40;;;0.90;;
8478;SDS011;4276;49.354;6.804;2023-03-14T08:04:38;1.67;;;1.02;;
8478;SDS011;4276;49.354;6.804;2023-03-14T08:07:05;0.98;;;0.88;;
8478;SDS011;4276;49.354;6.804;2023-03-14T08:09:32;1.13;;;0.80;;
8478;SDS011;4276;49.354;6.804;2023-03-14T08:11:58;1.50;;;1.25;;
8478;SDS011;4276;49.354;6.804;2023-03-14T08:14:25;0.82;;;0.82;;
8478;SDS011;4276;49.354;6.804;2023-03-14T08:16:52;1.10;;;1.00;;
8478;SDS011;4276;49.354;6.804;2023-03-14T08:19:18;1.55;;;1.45;;
8478;SDS011;4276;49.354;6.804;2023-03-14T08:21:45;0.70;;;0.70;;
8478;SDS011;4276;49.354;6.804;2023-03-14T08:24:11;1.35;;;1.00;;
8478;SDS011;4276;49.354;6.804;2023-03-14T08:26:38;0.90;;;0.90;;
8478;SDS011;4276;49.354;6.804;2023-03-14T08:29:04;1.33;;;1.25;;
8478;SDS011;4276;49.354;6.804;2023-03-14T08:31:31;1.30;;;1.30;;
8478;SDS011;4276;49.354;6.804;2023-03-14T08:33:58;2.70;;;1.80;;
8478;SDS011;4276;49.354;6.804;2023-03-14T08:36:25;1.10;;;1.10;;
8478;SDS011;4276;49.354;6.804;2023-03-14T08:38:52;1.70;;;1.60;;
8478;SDS011;4276;49.354;6.804;2023-03-14T08:41:18;3.95;;;3.65;;
8478;SDS011;4276;49.354;6.804;2023-03-14T08:43:45;3.65;;;3.35;;
8478;SDS011;4276;49.354;6.804;2023-03-14T08:46:11;2.13;;;1.92;;
8478;SDS011;4276;49.354;6.804;2023-03-14T08:48:38;1.25;;;1.15;;
8478;SDS011;4276;49.354;6.804;2023-03-14T08:51:07;1.58;;;1.48;;
8478;SDS011;4276;49.354;6.804;2023-03-14T08:53:35;2.60;;;2.40;;
8478;SDS011;4276;49.354;6.804;2023-03-14T08:56:02;1.80;;;1.70;;
8478;SDS011;4276;49.354;6.804;2023-03-14T08:58:32;1.45;;;1.30;;
8478;SDS011;4276;49.354;6.804;2023-03-14T09:01:01;3.30;;;2.70;;
8478;SDS011;4276;49.354;6.804;2023-03-14T09:03:28;0.95;;;0.95;;
8478;SDS011;4276;49.354;6.804;2023-03-14T09:05:54;1.65;;;1.45;;
8478;SDS011;4276;49.354;6.804;2023-03-14T09:08:21;0.80;;;0.80;;
8478;SDS011;4276;49.354;6.804;2023-03-14T09:10:47;0.80;;;0.80;;
8478;SDS011;4276;49.354;6.804;2023-03-14T09:13:14;0.70;;;0.70;;
8478;SDS011;4276;49.354;6.804;2023-03-14T09:15:40;0.77;;;0.77;;
8478;SDS011;4276;49.354;6.804;2023-03-14T09:18:08;1.60;;;1.50;;
8478;SDS011;4276;49.354;6.804;2023-03-14T09:20:35;1.88;;;0.93;;
8478;SDS011;4276;49.354;6.804;2023-03-14T09:23:02;1.17;;;1.13;;
8478;SDS011;4276;49.354;6.804;2023-03-14T09:25:28;1.60;;;1.00;;
8478;SDS011;4276;49.354;6.804;2023-03-14T09:27:54;1.00;;;1.00;;
8478;SDS011;4276;49.354;6.804;2023-03-14T09:30:21;1.00;;;0.90;;
8478;SDS011;4276;49.354;6.804;2023-03-14T09:32:47;1.27;;;1.00;;
8478;SDS011;4276;49.354;6.804;2023-03-14T09:35:14;0.98;;;0.90;;
8478;SDS011;4276;49.354;6.804;2023-03-14T09:37:41;1.08;;;0.98;;
8478;SDS011;4276;49.354;6.804;2023-03-14T09:40:11;1.00;;;1.00;;
8478;SDS011;4276;49.354;6.804;2023-03-14T09:42:39;1.10;;;1.10;;
8478;SDS011;4276;49.354;6.804;2023-03-14T09:45:11;2.15;;;1.30;;
8478;SDS011;4276;49.354;6.804;2023-03-14T09:47:40;2.47;;;1.90;;
8478;SDS011;4276;49.354;6.804;2023-03-14T09:50:23;2.63;;;1.80;;
8478;SDS011;4276;49.354;6.804;2023-03-14T09:52:52;2.20;;;2.00;;
8478;SDS011;4276;49.354;6.804;2023-03-14T09:55:23;3.55;;;2.63;;
8478;SDS011;4276;49.354;6.804;2023-03-14T09:57:50;2.15;;;1.95;;
8478;SDS011;4276;49.354;6.804;2023-03-14T10:00:21;2.45;;;1.90;;
8478;SDS011;4276;49.354;6.804;2023-03-14T10:02:51;2.70;;;2.08;;
8478;SDS011;4276;49.354;6.804;2023-03-14T10:05:20;2.22;;;1.75;;
8478;SDS011;4276;49.354;6.804;2023-03-14T10:07:47;1.60;;;1.50;;
8478;SDS011;4276;49.354;6.804;2023-03-14T10:10:19;1.95;;;1.55;;
8478;SDS011;4276;49.354;6.804;2023-03-14T10:12:47;2.00;;;1.73;;
8478;SDS011;4276;49.354;6.804;2023-03-14T10:15:30;3.13;;;1.90;;
8478;SDS011;4276;49.354;6.804;2023-03-14T10:17:59;2.80;;;1.90;;
8478;SDS011;4276;49.354;6.804;2023-03-14T10:22:59;2.00;;;1.90;;
8478;SDS011;4276;49.354;6.804;2023-03-14T10:25:58;2.92;;;2.10;;
8478;SDS011;4276;49.354;6.804;2023-03-14T10:28:30;2.88;;;2.25;;
8478;SDS011;4276;49.354;6.804;2023-03-14T10:30:59;4.40;;;2.17;;
8478;SDS011;4276;49.354;6.804;2023-03-14T10:33:27;2.25;;;2.08;;
8478;SDS011;4276;49.354;6.804;2023-03-14T10:36:05;3.67;;;2.22;;
8478;SDS011;4276;49.354;6.804;2023-03-14T10:38:43;3.63;;;2.10;;
8478;SDS011;4276;49.354;6.804;2023-03-14T10:41:19;2.95;;;2.60;;
8478;SDS011;4276;49.354;6.804;2023-03-14T10:43:51;5.82;;;3.05;;
8478;SDS011;4276;49.354;6.804;2023-03-14T10:46:20;3.42;;;2.88;;
8478;SDS011;4276;49.354;6.804;2023-03-14T10:48:47;6.45;;;3.60;;
8478;SDS011;4276;49.354;6.804;2023-03-14T10:56:17;3.55;;;2.58;;
8478;SDS011;4276;49.354;6.804;2023-03-14T10:58:46;2.50;;;2.15;;
8478;SDS011;4276;49.354;6.804;2023-03-14T11:21:02;1.60;;;1.50;;
8478;SDS011;4276;49.354;6.804;2023-03-14T11:29:12;4.30;;;1.92;;
8478;SDS011;4276;49.354;6.804;2023-03-14T11:31:44;2.50;;;2.30;;
8478;SDS011;4276;49.354;6.804;2023-03-14T11:39:29;6.78;;;3.33;;
8478;SDS011;4276;49.354;6.804;2023-03-14T11:42:03;4.90;;;3.05;;
8478;SDS011;4276;49.354;6.804;2023-03-14T11:44:34;4.63;;;2.92;;
8478;SDS011;4276;49.354;6.804;2023-03-14T11:47:17;3.45;;;2.38;;
8478;SDS011;4276;49.354;6.804;2023-03-14T11:52:19;2.80;;;1.60;;
8478;SDS011;4276;49.354;6.804;2023-03-14T11:54:53;2.10;;;1.65;;
8478;SDS011;4276;49.354;6.804;2023-03-14T11:57:22;5.22;;;3.67;;
8478;SDS011;4276;49.354;6.804;2023-03-14T11:59:54;3.33;;;2.63;;
8478;SDS011;4276;49.354;6.804;2023-03-14T12:10:48;2.75;;;1.88;;
8478;SDS011;4276;49.354;6.804;2023-03-14T12:13:16;3.08;;;1.73;;
8478;SDS011;4276;49.354;6.804;2023-03-14T12:15:47;4.07;;;1.60;;
8478;SDS011;4276;49.354;6.804;2023-03-14T12:20:52;4.82;;;2.28;;
8478;SDS011;4276;49.354;6.804;2023-03-14T12:23:20;5.30;;;2.55;;
8478;SDS011;4276;49.354;6.804;2023-03-14T12:25:46;3.40;;;2.47;;
8478;SDS011;4276;49.354;6.804;2023-03-14T12:28:21;3.38;;;2.35;;
8478;SDS011;4276;49.354;6.804;2023-03-14T12:30:48;3.08;;;2.60;;
8478;SDS011;4276;49.354;6.804;2023-03-14T12:40:59;1.35;;;1.30;;
8478;SDS011;4276;49.354;6.804;2023-03-14T12:43:28;2.03;;;1.25;;
8478;SDS011;4276;49.354;6.804;2023-03-14T12:46:15;2.88;;;1.25;;
8478;SDS011;4276;49.354;6.804;2023-03-14T12:48:47;3.25;;;1.30;;
8478;SDS011;4276;49.354;6.804;2023-03-14T12:51:16;2.88;;;1.58;;
8478;SDS011;4276;49.354;6.804;2023-03-14T12:53:59;2.15;;;1.70;;
8478;SDS011;4276;49.354;6.804;2023-03-14T12:56:43;3.92;;;2.00;;
8478;SDS011;4276;49.354;6.804;2023-03-14T12:59:58;4.32;;;2.20;;
8478;SDS011;4276;49.354;6.804;2023-03-14T13:04:44;4.22;;;2.78;;
8478;SDS011;4276;49.354;6.804;2023-03-14T13:18:17;3.25;;;2.00;;
8478;SDS011;4276;49.354;6.804;2023-03-14T13:20:53;5.05;;;2.20;;
8478;SDS011;4276;49.354;6.804;2023-03-14T13:23:22;2.80;;;1.77;;
8478;SDS011;4276;49.354;6.804;2023-03-14T13:25:50;9.00;;;2.30;;
8478;SDS011;4276;49.354;6.804;2023-03-14T13:28:17;5.28;;;2.22;;
8478;SDS011;4276;49.354;6.804;2023-03-14T13:30:45;5.63;;;2.78;;
8478;SDS011;4276;49.354;6.804;2023-03-14T13:33:15;6.30;;;2.60;;
8478;SDS011;4276;49.354;6.804;2023-03-14T13:35:44;4.95;;;2.63;;
8478;SDS011;4276;49.354;6.804;2023-03-14T13:38:15;5.85;;;2.08;;
8478;SDS011;4276;49.354;6.804;2023-03-14T13:40:43;4.07;;;2.35;;
8478;SDS011;4276;49.354;6.804;2023-03-14T13:43:13;5.68;;;2.40;;
8478;SDS011;4276;49.354;6.804;2023-03-14T13:45:50;6.22;;;3.80;;
8478;SDS011;4276;49.354;6.804;2023-03-14T13:48:30;6.57;;;4.45;;
8478;SDS011;4276;49.354;6.804;2023-03-14T13:51:03;8.00;;;4.78;;
8478;SDS011;4276;49.354;6.804;2023-03-14T13:53:30;6.75;;;3.45;;
8478;SDS011;4276;49.354;6.804;2023-03-14T13:55:57;5.13;;;3.45;;
8478;SDS011;4276;49.354;6.804;2023-03-14T13:58:29;5.68;;;2.47;;
8478;SDS011;4276;49.354;6.804;2023-03-14T14:01:01;3.40;;;2.75;;
8478;SDS011;4276;49.354;6.804;2023-03-14T14:03:30;7.65;;;3.88;;
8478;SDS011;4276;49.354;6.804;2023-03-14T14:05:57;5.75;;;3.20;;
8478;SDS011;4276;49.354;6.804;2023-03-14T14:08:26;6.03;;;3.25;;
8478;SDS011;4276;49.354;6.804;2023-03-14T14:10:59;6.85;;;4.20;;
8478;SDS011;4276;49.354;6.804;2023-03-14T14:13:28;6.10;;;3.40;;
8478;SDS011;4276;49.354;6.804;2023-03-14T14:15:56;9.15;;;4.68;;
8478;SDS011;4276;49.354;6.804;2023-03-14T14:18:26;8.25;;;4.45;;
8478;SDS011;4276;49.354;6.804;2023-03-14T14:20:54;6.43;;;2.92;;
8478;SDS011;4276;49.354;6.804;2023-03-14T14:23:25;6.85;;;4.32;;
8478;SDS011;4276;49.354;6.804;2023-03-14T14:25:57;7.60;;;4.57;;
8478;SDS011;4276;49.354;6.804;2023-03-14T14:33:27;5.28;;;3.53;;
8478;SDS011;4276;49.354;6.804;2023-03-14T14:35:57;4.60;;;2.20;;
8478;SDS011;4276;49.354;6.804;2023-03-14T14:38:24;7.43;;;3.30;;
8478;SDS011;4276;49.354;6.804;2023-03-14T14:40:53;5.07;;;2.58;;
8478;SDS011;4276;49.354;6.804;2023-03-14T14:43:22;5.55;;;3.33;;
8478;SDS011;4276;49.354;6.804;2023-03-14T14:45:50;3.63;;;2.20;;
8478;SDS011;4276;49.354;6.804;2023-03-14T14:48:22;3.22;;;2.53;;
8478;SDS011;4276;49.354;6.804;2023-03-14T14:55:50;4.82;;;2.67;;
8478;SDS011;4276;49.354;6.804;2023-03-14T14:58:25;6.43;;;3.17;;
8478;SDS011;4276;49.354;6.804;2023-03-14T15:01:03;4.35;;;2.20;;
8478;SDS011;4276;49.354;6.804;2023-03-14T15:03:33;4.13;;;2.40;;
8478;SDS011;4276;49.354;6.804;2023-03-14T15:06:01;3.78;;;2.20;;
8478;SDS011;4276;49.354;6.804;2023-03-14T15:08:28;3.55;;;2.45;;
8478;SDS011;4276;49.354;6.804;2023-03-14T15:10:55;4.45;;;2.30;;
8478;SDS011;4276;49.354;6.804;2023-03-14T15:13:22;6.47;;;2.42;;
8478;SDS011;4276;49.354;6.804;2023-03-14T15:15:49;6.20;;;2.78;;
8478;SDS011;4276;49.354;6.804;2023-03-14T15:18:25;5.47;;;3.47;;
8478;SDS011;4276;49.354;6.804;2023-03-14T15:20:56;4.13;;;2.20;;
8478;SDS011;4276;49.354;6.804;2023-03-14T15:23:22;4.72;;;2.35;;
8478;SDS011;4276;49.354;6.804;2023-03-14T15:25:49;6.20;;;2.55;;
8478;SDS011;4276;49.354;6.804;2023-03-14T15:28:23;4.70;;;2.22;;
8478;SDS011;4276;49.354;6.804;2023-03-14T15:30:52;4.35;;;2.33;;
8478;SDS011;4276;49.354;6.804;2023-03-14T15:33:20;5.88;;;2.67;;
8478;SDS011;4276;49.354;6.804;2023-03-14T15:35:47;5.57;;;2.67;;
8478;SDS011;4276;49.354;6.804;2023-03-14T15:38:16;2.90;;;1.90;;
8478;SDS011;4276;49.354;6.804;2023-03-14T15:40:47;3.47;;;1.90;;
8478;SDS011;4276;49.354;6.804;2023-03-14T15:43:16;3.55;;;1.92;;
8478;SDS011;4276;49.354;6.804;2023-03-14T15:45:44;3.03;;;2.10;;
8478;SDS011;4276;49.354;6.804;2023-03-14T15:48:15;3.67;;;2.05;;
8478;SDS011;4276;49.354;6.804;2023-03-14T15:50:43;4.90;;;3.13;;
8478;SDS011;4276;49.354;6.804;2023-03-14T15:53:09;5.47;;;2.70;;
8478;SDS011;4276;49.354;6.804;2023-03-14T15:55:36;2.65;;;2.20;;
8478;SDS011;4276;49.354;6.804;2023-03-14T15:58:03;2.92;;;2.00;;
8478;SDS011;4276;49.354;6.804;2023-03-14T16:00:30;3.30;;;1.90;;
8478;SDS011;4276;49.354;6.804;2023-03-14T16:02:57;5.72;;;2.10;;
8478;SDS011;4276;49.354;6.804;2023-03-14T16:05:23;3.75;;;2.20;;
8478;SDS011;4276;49.354;6.804;2023-03-14T16:07:50;3.60;;;2.13;;
8478;SDS011;4276;49.354;6.804;2023-03-14T16:10:16;3.97;;;2.45;;
8478;SDS011;4276;49.354;6.804;2023-03-14T16:12:43;3.60;;;2.20;;
8478;SDS011;4276;49.354;6.804;2023-03-14T16:15:09;3.55;;;1.92;;
8478;SDS011;4276;49.354;6.804;2023-03-14T16:17:36;3.05;;;2.30;;
8478;SDS011;4276;49.354;6.804;2023-03-14T16:20:04;6.40;;;2.45;;
8478;SDS011;4276;49.354;6.804;2023-03-14T16:22:31;3.67;;;2.38;;
8478;SDS011;4276;49.354;6.804;2023-03-14T16:25:04;4.38;;;2.20;;
8478;SDS011;4276;49.354;6.804;2023-03-14T16:27:32;3.42;;;1.95;;
8478;SDS011;4276;49.354;6.804;2023-03-14T16:29:58;5.13;;;2.38;;
8478;SDS011;4276;49.354;6.804;2023-03-14T16:32:25;3.05;;;2.30;;
8478;SDS011;4276;49.354;6.804;2023-03-14T16:34:52;3.90;;;2.67;;
8478;SDS011;4276;49.354;6.804;2023-03-14T16:37:19;3.15;;;2.40;;
8478;SDS011;4276;49.354;6.804;2023-03-14T16:39:47;5.22;;;2.20;;
8478;SDS011;4276;49.354;6.804;2023-03-14T16:42:36;2.72;;;2.03;;
8478;SDS011;4276;49.354;6.804;2023-03-14T16:45:20;3.30;;;2.33;;
8478;SDS011;4276;49.354;6.804;2023-03-14T16:47:49;3.80;;;1.90;;
8478;SDS011;4276;49.354;6.804;2023-03-14T16:50:16;4.03;;;2.55;;